sensor_id;sensor_type;location;lat;lon;timestamp;P1;durP1;ratioP1;P2;durP2;ratioP2
31091;SDS011;67728;53.122;12.776;2024-03-23T00:54:13;994.90;;;594.83;;
31091;SDS011;67728;53.122;12.776;2024-03-23T00:55:45;1024.97;;;617.80;;
31091;SDS011;67728;53.122;12.776;2024-03-23T00:57:15;1042.40;;;617.20;;
31091;SDS011;67728;53.122;12.776;2024-03-23T00:58:46;1001.83;;;597.23;;
31091;SDS011;67728;53.122;12.776;2024-03-23T01:00:17;1020.53;;;604.80;;
31091;SDS011;67728;53.122;12.776;2024-03-23T01:01:48;1030.90;;;619.90;;
31091;SDS011;67728;53.122;12.776;2024-03-23T01:03:19;1031.57;;;620.73;;
31091;SDS011;67728;53.122;12.776;2024-03-23T01:04:50;1027.73;;;604.33;;
31091;SDS011;67728;53.122;12.776;2024-03-23T01:06:21;1008.43;;;596.93;;
31091;SDS011;67728;53.122;12.776;2024-03-23T01:07:53;990.90;;;584.90;;
31091;SDS011;67728;53.122;12.776;2024-03-23T01:09:25;1012.73;;;594.67;;
31091;SDS011;67728;53.122;12.776;2024-03-23T01:10:55;999.77;;;595.27;;
31091;SDS011;67728;53.122;12.776;2024-03-23T01:12:27;1031.13;;;583.40;;
31091;SDS011;67728;53.122;12.776;2024-03-23T01:13:57;983.53;;;588.00;;
31091;SDS011;67728;53.122;12.776;2024-03-23T01:15:28;1030.23;;;596.93;;
31091;SDS011;67728;53.122;12.776;2024-03-23T01:17:00;983.23;;;589.20;;
31091;SDS011;67728;53.122;12.776;2024-03-23T01:18:30;1013.43;;;605.77;;
31091;SDS011;67728;53.122;12.776;2024-03-23T01:20:01;1026.50;;;608.17;;
31091;SDS011;67728;53.122;12.776;2024-03-23T01:21:33;1033.80;;;607.80;;
31091;SDS011;67728;53.122;12.776;2024-03-23T01:23:03;1025.77;;;609.73;;
31091;SDS011;67728;53.122;12.776;2024-03-23T01:24:35;1012.60;;;598.80;;
31091;SDS011;67728;53.122;12.776;2024-03-23T01:26:07;1032.73;;;609.27;;
31091;SDS011;67728;53.122;12.776;2024-03-23T01:27:37;1095.77;;;609.40;;
31091;SDS011;67728;53.122;12.776;2024-03-23T01:29:08;1039.80;;;613.23;;
31091;SDS011;67728;53.122;12.776;2024-03-23T01:30:40;1030.20;;;610.10;;
31091;SDS011;67728;53.122;12.776;2024-03-23T01:32:10;1027.30;;;602.00;;
31091;SDS011;67728;53.122;12.776;2024-03-23T01:33:41;1037.43;;;608.73;;
31091;SDS011;67728;53.122;12.776;2024-03-23T01:35:12;1031.93;;;618.37;;
31091;SDS011;67728;53.122;12.776;2024-03-23T01:36:43;1036.17;;;609.20;;
31091;SDS011;67728;53.122;12.776;2024-03-23T01:38:14;1030.93;;;607.13;;
31091;SDS011;67728;53.122;12.776;2024-03-23T01:39:47;1046.87;;;615.50;;
31091;SDS011;67728;53.122;12.776;2024-03-23T01:41:17;1025.07;;;601.97;;
31091;SDS011;67728;53.122;12.776;2024-03-23T01:42:57;1083.80;;;606.93;;
31091;SDS011;67728;53.122;12.776;2024-03-23T01:44:29;1019.63;;;604.17;;
31091;SDS011;67728;53.122;12.776;2024-03-23T01:46:00;1024.17;;;599.30;;
31091;SDS011;67728;53.122;12.776;2024-03-23T01:47:31;1027.03;;;603.93;;
31091;SDS011;67728;53.122;12.776;2024-03-23T01:49:02;1031.93;;;609.80;;
31091;SDS011;67728;53.122;12.776;2024-03-23T01:50:33;1028.57;;;606.77;;
31091;SDS011;67728;53.122;12.776;2024-03-23T01:52:05;1019.90;;;596.90;;
31091;SDS011;67728;53.122;12.776;2024-03-23T01:53:36;1011.47;;;603.30;;
31091;SDS011;67728;53.122;12.776;2024-03-23T01:55:09;1028.30;;;604.00;;
31091;SDS011;67728;53.122;12.776;2024-03-23T01:56:41;1009.93;;;604.50;;
31091;SDS011;67728;53.122;12.776;2024-03-23T01:58:11;998.57;;;598.40;;
31091;SDS011;67728;53.122;12.776;2024-03-23T01:59:43;1005.23;;;591.87;;
31091;SDS011;67728;53.122;12.776;2024-03-23T02:01:14;1007.80;;;597.93;;
31091;SDS011;67728;53.122;12.776;2024-03-23T02:02:44;1055.97;;;599.63;;
31091;SDS011;67728;53.122;12.776;2024-03-23T02:04:16;1013.03;;;600.17;;
31091;SDS011;67728;53.122;12.776;2024-03-23T02:05:47;1007.53;;;591.10;;
31091;SDS011;67728;53.122;12.776;2024-03-23T02:07:18;1016.90;;;599.00;;
31091;SDS011;67728;53.122;12.776;2024-03-23T02:08:49;1016.17;;;604.10;;
31091;SDS011;67728;53.122;12.776;2024-03-23T02:10:22;1006.70;;;599.50;;
31091;SDS011;67728;53.122;12.776;2024-03-23T02:11:52;1020.10;;;601.00;;
31091;SDS011;67728;53.122;12.776;2024-03-23T02:13:24;1013.63;;;607.53;;
31091;SDS011;67728;53.122;12.776;2024-03-23T02:14:55;1015.93;;;605.03;;
31091;SDS011;67728;53.122;12.776;2024-03-23T02:16:25;1013.20;;;602.70;;
31091;SDS011;67728;53.122;12.776;2024-03-23T02:17:57;1085.90;;;606.97;;
31091;SDS011;67728;53.122;12.776;2024-03-23T02:19:27;1028.93;;;608.70;;
31091;SDS011;67728;53.122;12.776;2024-03-23T02:20:58;1018.03;;;603.97;;
31091;SDS011;67728;53.122;12.776;2024-03-23T02:22:35;1015.60;;;603.50;;
31091;SDS011;67728;53.122;12.776;2024-03-23T02:24:07;1016.93;;;605.20;;
31091;SDS011;67728;53.122;12.776;2024-03-23T02:25:38;1007.43;;;596.43;;
31091;SDS011;67728;53.122;12.776;2024-03-23T02:27:10;1013.73;;;610.63;;
31091;SDS011;67728;53.122;12.776;2024-03-23T02:28:40;1016.13;;;620.43;;
31091;SDS011;67728;53.122;12.776;2024-03-23T02:30:12;1014.20;;;614.00;;
31091;SDS011;67728;53.122;12.776;2024-03-23T02:31:42;1018.87;;;613.33;;
31091;SDS011;67728;53.122;12.776;2024-03-23T02:33:13;1007.00;;;604.70;;
31091;SDS011;67728;53.122;12.776;2024-03-23T02:34:45;1019.63;;;617.50;;
31091;SDS011;67728;53.122;12.776;2024-03-23T02:36:15;1031.30;;;616.90;;
31091;SDS011;67728;53.122;12.776;2024-03-23T02:37:46;1026.73;;;620.93;;
31091;SDS011;67728;53.122;12.776;2024-03-23T02:39:19;1012.37;;;612.93;;
31091;SDS011;67728;53.122;12.776;2024-03-23T02:40:50;1037.57;;;622.20;;
31091;SDS011;67728;53.122;12.776;2024-03-23T02:42:21;1024.80;;;624.70;;
31091;SDS011;67728;53.122;12.776;2024-03-23T02:43:52;1024.50;;;624.80;;
31091;SDS011;67728;53.122;12.776;2024-03-23T02:45:23;1027.37;;;618.67;;
31091;SDS011;67728;53.122;12.776;2024-03-23T02:46:54;1033.13;;;628.13;;
31091;SDS011;67728;53.122;12.776;2024-03-23T02:48:25;1027.57;;;625.63;;
31091;SDS011;67728;53.122;12.776;2024-03-23T02:49:57;1034.77;;;625.73;;
31091;SDS011;67728;53.122;12.776;2024-03-23T02:51:27;1016.97;;;622.60;;
31091;SDS011;67728;53.122;12.776;2024-03-23T02:52:58;1043.60;;;622.83;;
31091;SDS011;67728;53.122;12.776;2024-03-23T02:54:31;1021.13;;;624.37;;
31091;SDS011;67728;53.122;12.776;2024-03-23T02:56:02;1019.03;;;620.17;;
31091;SDS011;67728;53.122;12.776;2024-03-23T02:57:33;1021.27;;;624.20;;
31091;SDS011;67728;53.122;12.776;2024-03-23T02:59:04;1032.73;;;615.27;;
31091;SDS011;67728;53.122;12.776;2024-03-23T03:00:35;993.23;;;599.63;;
31091;SDS011;67728;53.122;12.776;2024-03-23T03:02:06;998.47;;;595.37;;
31091;SDS011;67728;53.122;12.776;2024-03-23T03:03:37;1027.77;;;623.67;;
31091;SDS011;67728;53.122;12.776;2024-03-23T03:05:08;977.93;;;584.57;;
31091;SDS011;67728;53.122;12.776;2024-03-23T03:06:39;1007.33;;;611.97;;
31091;SDS011;67728;53.122;12.776;2024-03-23T03:08:11;1067.83;;;602.83;;
31091;SDS011;67728;53.122;12.776;2024-03-23T03:09:43;1007.20;;;606.23;;
31091;SDS011;67728;53.122;12.776;2024-03-23T03:11:13;1005.60;;;602.80;;
31091;SDS011;67728;53.122;12.776;2024-03-23T03:12:45;1004.90;;;606.37;;
31091;SDS011;67728;53.122;12.776;2024-03-23T03:14:16;1016.73;;;617.30;;
31091;SDS011;67728;53.122;12.776;2024-03-23T03:15:46;1020.13;;;618.60;;
31091;SDS011;67728;53.122;12.776;2024-03-23T03:17:18;1025.53;;;621.33;;
31091;SDS011;67728;53.122;12.776;2024-03-23T03:18:49;1027.93;;;618.57;;
31091;SDS011;67728;53.122;12.776;2024-03-23T03:20:20;1031.73;;;616.13;;
31091;SDS011;67728;53.122;12.776;2024-03-23T03:21:53;1021.27;;;604.10;;
31091;SDS011;67728;53.122;12.776;2024-03-23T03:23:24;1087.10;;;613.33;;
31091;SDS011;67728;53.122;12.776;2024-03-23T03:26:32;1026.73;;;613.57;;
31091;SDS011;67728;53.122;12.776;2024-03-23T03:28:03;1015.50;;;612.13;;
31091;SDS011;67728;53.122;12.776;2024-03-23T03:29:34;1027.87;;;613.27;;
31091;SDS011;67728;53.122;12.776;2024-03-23T03:31:06;1010.87;;;603.57;;
31091;SDS011;67728;53.122;12.776;2024-03-23T03:32:36;1035.23;;;613.70;;
31091;SDS011;67728;53.122;12.776;2024-03-23T03:34:07;1040.30;;;607.23;;
31091;SDS011;67728;53.122;12.776;2024-03-23T03:35:39;1012.60;;;595.57;;
31091;SDS011;67728;53.122;12.776;2024-03-23T03:37:09;1001.53;;;593.70;;
31091;SDS011;67728;53.122;12.776;2024-03-23T03:38:41;1024.03;;;608.60;;
31091;SDS011;67728;53.122;12.776;2024-03-23T03:40:13;989.83;;;585.03;;
31091;SDS011;67728;53.122;12.776;2024-03-23T03:41:45;1001.97;;;591.37;;
31091;SDS011;67728;53.122;12.776;2024-03-23T03:43:16;1046.53;;;589.03;;
31091;SDS011;67728;53.122;12.776;2024-03-23T03:44:47;996.40;;;587.53;;
31091;SDS011;67728;53.122;12.776;2024-03-23T03:46:18;996.37;;;582.17;;
31091;SDS011;67728;53.122;12.776;2024-03-23T03:47:49;1011.73;;;595.87;;
31091;SDS011;67728;53.122;12.776;2024-03-23T03:49:20;986.00;;;574.80;;
31091;SDS011;67728;53.122;12.776;2024-03-23T03:50:51;996.87;;;582.77;;
31091;SDS011;67728;53.122;12.776;2024-03-23T03:52:23;971.20;;;578.13;;
31091;SDS011;67728;53.122;12.776;2024-03-23T03:53:54;978.77;;;582.83;;
31091;SDS011;67728;53.122;12.776;2024-03-23T03:55:27;992.43;;;570.47;;
31091;SDS011;67728;53.122;12.776;2024-03-23T03:56:58;1017.77;;;579.33;;
31091;SDS011;67728;53.122;12.776;2024-03-23T03:58:28;1047.13;;;579.40;;
31091;SDS011;67728;53.122;12.776;2024-03-23T04:00:00;990.33;;;583.67;;
31091;SDS011;67728;53.122;12.776;2024-03-23T04:01:30;993.47;;;570.20;;
31091;SDS011;67728;53.122;12.776;2024-03-23T04:03:01;1005.23;;;581.20;;
31091;SDS011;67728;53.122;12.776;2024-03-23T04:04:33;971.27;;;565.53;;
31091;SDS011;67728;53.122;12.776;2024-03-23T04:06:03;1022.20;;;580.40;;
31091;SDS011;67728;53.122;12.776;2024-03-23T04:07:34;975.57;;;576.47;;
31091;SDS011;67728;53.122;12.776;2024-03-23T04:09:06;976.70;;;576.00;;
31091;SDS011;67728;53.122;12.776;2024-03-23T04:10:38;979.73;;;580.63;;
31091;SDS011;67728;53.122;12.776;2024-03-23T04:12:08;970.87;;;562.93;;
31091;SDS011;67728;53.122;12.776;2024-03-23T04:13:40;1017.03;;;563.83;;
31091;SDS011;67728;53.122;12.776;2024-03-23T04:15:11;951.23;;;557.07;;
31091;SDS011;67728;53.122;12.776;2024-03-23T04:16:42;945.43;;;550.03;;
31091;SDS011;67728;53.122;12.776;2024-03-23T04:18:14;974.07;;;573.37;;
31091;SDS011;67728;53.122;12.776;2024-03-23T04:19:45;982.70;;;582.10;;
31091;SDS011;67728;53.122;12.776;2024-03-23T04:21:15;983.67;;;574.50;;
31091;SDS011;67728;53.122;12.776;2024-03-23T04:22:47;977.77;;;559.10;;
31091;SDS011;67728;53.122;12.776;2024-03-23T04:24:18;987.87;;;572.77;;
31091;SDS011;67728;53.122;12.776;2024-03-23T04:25:52;986.03;;;573.33;;
31091;SDS011;67728;53.122;12.776;2024-03-23T04:27:24;988.37;;;577.67;;
31091;SDS011;67728;53.122;12.776;2024-03-23T04:28:55;1011.60;;;589.63;;
31091;SDS011;67728;53.122;12.776;2024-03-23T04:30:26;1006.47;;;597.00;;
31091;SDS011;67728;53.122;12.776;2024-03-23T04:31:59;1008.37;;;595.13;;
31091;SDS011;67728;53.122;12.776;2024-03-23T04:33:31;975.30;;;559.83;;
31091;SDS011;67728;53.122;12.776;2024-03-23T04:35:01;1015.47;;;578.33;;
31091;SDS011;67728;53.122;12.776;2024-03-23T04:36:35;977.77;;;567.17;;
31091;SDS011;67728;53.122;12.776;2024-03-23T04:38:06;987.33;;;559.13;;
31091;SDS011;67728;53.122;12.776;2024-03-23T04:39:38;1036.63;;;578.27;;
31091;SDS011;67728;53.122;12.776;2024-03-23T04:41:10;1036.57;;;578.13;;
31091;SDS011;67728;53.122;12.776;2024-03-23T04:42:41;976.83;;;556.10;;
31091;SDS011;67728;53.122;12.776;2024-03-23T04:44:12;1032.97;;;576.87;;
31091;SDS011;67728;53.122;12.776;2024-03-23T04:45:44;1036.40;;;580.80;;
31091;SDS011;67728;53.122;12.776;2024-03-23T04:47:15;1013.07;;;584.60;;
31091;SDS011;67728;53.122;12.776;2024-03-23T04:48:46;1089.73;;;579.87;;
31091;SDS011;67728;53.122;12.776;2024-03-23T04:50:17;1027.80;;;573.73;;
31091;SDS011;67728;53.122;12.776;2024-03-23T04:51:49;1042.80;;;581.03;;
31091;SDS011;67728;53.122;12.776;2024-03-23T04:53:20;1029.53;;;567.53;;
31091;SDS011;67728;53.122;12.776;2024-03-23T04:54:52;983.27;;;561.83;;
31091;SDS011;67728;53.122;12.776;2024-03-23T04:56:24;983.17;;;573.03;;
31091;SDS011;67728;53.122;12.776;2024-03-23T04:57:55;977.70;;;570.30;;
31091;SDS011;67728;53.122;12.776;2024-03-23T04:59:26;1000.57;;;576.67;;
31091;SDS011;67728;53.122;12.776;2024-03-23T05:00:57;980.67;;;576.87;;
31091;SDS011;67728;53.122;12.776;2024-03-23T05:02:28;981.37;;;575.50;;
31091;SDS011;67728;53.122;12.776;2024-03-23T05:03:59;975.93;;;572.50;;
31091;SDS011;67728;53.122;12.776;2024-03-23T05:05:30;977.40;;;564.63;;
31091;SDS011;67728;53.122;12.776;2024-03-23T05:07:01;982.23;;;571.33;;
31091;SDS011;67728;53.122;12.776;2024-03-23T05:08:32;972.73;;;569.60;;
31091;SDS011;67728;53.122;12.776;2024-03-23T05:10:04;975.47;;;571.10;;
31091;SDS011;67728;53.122;12.776;2024-03-23T05:11:36;981.63;;;571.77;;
31091;SDS011;67728;53.122;12.776;2024-03-23T05:13:07;945.13;;;538.97;;
31091;SDS011;67728;53.122;12.776;2024-03-23T05:14:39;966.13;;;555.83;;
31091;SDS011;67728;53.122;12.776;2024-03-23T05:16:09;971.57;;;563.47;;
31091;SDS011;67728;53.122;12.776;2024-03-23T05:17:41;985.63;;;562.97;;
31091;SDS011;67728;53.122;12.776;2024-03-23T05:19:11;1023.90;;;578.63;;
31091;SDS011;67728;53.122;12.776;2024-03-23T05:20:42;1014.27;;;578.10;;
31091;SDS011;67728;53.122;12.776;2024-03-23T05:22:14;1032.20;;;578.27;;
31091;SDS011;67728;53.122;12.776;2024-03-23T05:23:44;1062.80;;;577.30;;
31091;SDS011;67728;53.122;12.776;2024-03-23T05:25:15;985.13;;;571.03;;
31091;SDS011;67728;53.122;12.776;2024-03-23T05:26:48;980.87;;;568.40;;
31091;SDS011;67728;53.122;12.776;2024-03-23T05:28:19;987.57;;;566.63;;
31091;SDS011;67728;53.122;12.776;2024-03-23T05:29:50;984.93;;;561.90;;
31091;SDS011;67728;53.122;12.776;2024-03-23T05:31:24;985.80;;;562.30;;
31091;SDS011;67728;53.122;12.776;2024-03-23T05:32:55;986.97;;;566.93;;
31091;SDS011;67728;53.122;12.776;2024-03-23T05:34:27;964.77;;;545.03;;
31091;SDS011;67728;53.122;12.776;2024-03-23T05:35:59;979.87;;;551.03;;
31091;SDS011;67728;53.122;12.776;2024-03-23T05:37:31;991.67;;;566.47;;
31091;SDS011;67728;53.122;12.776;2024-03-23T05:39:04;979.17;;;557.77;;
31091;SDS011;67728;53.122;12.776;2024-03-23T05:40:34;1001.60;;;570.73;;
31091;SDS011;67728;53.122;12.776;2024-03-23T05:42:08;994.20;;;556.87;;
31091;SDS011;67728;53.122;12.776;2024-03-23T05:43:40;1010.57;;;572.40;;
31091;SDS011;67728;53.122;12.776;2024-03-23T05:45:10;987.20;;;563.23;;
31091;SDS011;67728;53.122;12.776;2024-03-23T05:46:42;972.97;;;550.20;;
31091;SDS011;67728;53.122;12.776;2024-03-23T05:48:18;981.10;;;555.67;;
31091;SDS011;67728;53.122;12.776;2024-03-23T05:49:49;1000.93;;;559.30;;
31091;SDS011;67728;53.122;12.776;2024-03-23T05:51:21;973.37;;;559.97;;
31091;SDS011;67728;53.122;12.776;2024-03-23T05:52:52;979.57;;;554.83;;
31091;SDS011;67728;53.122;12.776;2024-03-23T05:54:23;989.73;;;553.13;;
31091;SDS011;67728;53.122;12.776;2024-03-23T05:56:00;976.40;;;553.67;;
31091;SDS011;67728;53.122;12.776;2024-03-23T05:57:35;977.00;;;559.97;;
31091;SDS011;67728;53.122;12.776;2024-03-23T05:59:05;980.27;;;545.97;;
31091;SDS011;67728;53.122;12.776;2024-03-23T06:00:37;968.03;;;554.23;;
31091;SDS011;67728;53.122;12.776;2024-03-23T06:02:07;972.53;;;550.77;;
31091;SDS011;67728;53.122;12.776;2024-03-23T06:03:40;981.97;;;554.57;;
31091;SDS011;67728;53.122;12.776;2024-03-23T06:05:13;971.10;;;547.20;;
31091;SDS011;67728;53.122;12.776;2024-03-23T06:06:44;976.03;;;554.80;;
31091;SDS011;67728;53.122;12.776;2024-03-23T06:08:15;990.30;;;555.70;;
31091;SDS011;67728;53.122;12.776;2024-03-23T06:09:47;965.33;;;548.97;;
31091;SDS011;67728;53.122;12.776;2024-03-23T06:11:17;973.90;;;563.00;;
31091;SDS011;67728;53.122;12.776;2024-03-23T06:12:49;981.13;;;563.33;;
31091;SDS011;67728;53.122;12.776;2024-03-23T06:14:22;978.90;;;563.13;;
31091;SDS011;67728;53.122;12.776;2024-03-23T06:15:52;1001.90;;;560.37;;
31091;SDS011;67728;53.122;12.776;2024-03-23T06:17:23;979.23;;;559.37;;
31091;SDS011;67728;53.122;12.776;2024-03-23T06:18:55;981.93;;;565.07;;
31091;SDS011;67728;53.122;12.776;2024-03-23T06:20:25;984.13;;;565.57;;
31091;SDS011;67728;53.122;12.776;2024-03-23T06:21:57;1003.10;;;572.93;;
31091;SDS011;67728;53.122;12.776;2024-03-23T06:23:27;983.33;;;566.17;;
31091;SDS011;67728;53.122;12.776;2024-03-23T06:24:59;989.70;;;573.93;;
31091;SDS011;67728;53.122;12.776;2024-03-23T06:26:30;987.37;;;571.00;;
31091;SDS011;67728;53.122;12.776;2024-03-23T06:28:02;999.93;;;566.73;;
31091;SDS011;67728;53.122;12.776;2024-03-23T06:29:34;977.07;;;554.43;;
31091;SDS011;67728;53.122;12.776;2024-03-23T06:31:08;982.30;;;560.90;;
31091;SDS011;67728;53.122;12.776;2024-03-23T06:32:39;992.47;;;564.37;;
31091;SDS011;67728;53.122;12.776;2024-03-23T06:34:11;989.80;;;566.80;;
31091;SDS011;67728;53.122;12.776;2024-03-23T06:35:41;977.23;;;556.40;;
31091;SDS011;67728;53.122;12.776;2024-03-23T06:37:13;982.20;;;562.43;;
31091;SDS011;67728;53.122;12.776;2024-03-23T06:38:44;986.67;;;562.57;;
31091;SDS011;67728;53.122;12.776;2024-03-23T06:40:15;998.93;;;557.37;;
31091;SDS011;67728;53.122;12.776;2024-03-23T06:41:51;987.77;;;562.37;;
31091;SDS011;67728;53.122;12.776;2024-03-23T06:43:24;982.47;;;552.90;;
31091;SDS011;67728;53.122;12.776;2024-03-23T06:44:54;989.93;;;563.67;;
31091;SDS011;67728;53.122;12.776;2024-03-23T06:46:26;992.97;;;573.67;;
31091;SDS011;67728;53.122;12.776;2024-03-23T06:47:56;997.23;;;558.77;;
31091;SDS011;67728;53.122;12.776;2024-03-23T06:49:28;1004.37;;;566.17;;
31091;SDS011;67728;53.122;12.776;2024-03-23T06:50:59;989.63;;;570.07;;
31091;SDS011;67728;53.122;12.776;2024-03-23T06:52:30;994.03;;;574.60;;
31091;SDS011;67728;53.122;12.776;2024-03-23T06:54:01;990.30;;;557.10;;
31091;SDS011;67728;53.122;12.776;2024-03-23T06:55:33;983.43;;;557.77;;
31091;SDS011;67728;53.122;12.776;2024-03-23T06:57:05;995.43;;;572.53;;
31091;SDS011;67728;53.122;12.776;2024-03-23T06:58:37;999.50;;;570.87;;
31091;SDS011;67728;53.122;12.776;2024-03-23T07:00:09;996.90;;;573.20;;
31091;SDS011;67728;53.122;12.776;2024-03-23T07:01:41;1002.20;;;574.37;;
31091;SDS011;67728;53.122;12.776;2024-03-23T07:03:12;1020.30;;;578.57;;
31091;SDS011;67728;53.122;12.776;2024-03-23T07:04:44;1005.23;;;574.17;;
31091;SDS011;67728;53.122;12.776;2024-03-23T07:06:14;997.93;;;568.40;;
31091;SDS011;67728;53.122;12.776;2024-03-23T07:07:45;1033.60;;;575.20;;
31091;SDS011;67728;53.122;12.776;2024-03-23T07:09:17;1006.43;;;579.00;;
31091;SDS011;67728;53.122;12.776;2024-03-23T07:10:47;1010.00;;;574.60;;
31091;SDS011;67728;53.122;12.776;2024-03-23T07:12:18;1025.10;;;578.00;;
31091;SDS011;67728;53.122;12.776;2024-03-23T07:13:52;1007.50;;;579.90;;
31091;SDS011;67728;53.122;12.776;2024-03-23T07:15:24;1004.73;;;581.67;;
31091;SDS011;67728;53.122;12.776;2024-03-23T07:16:55;1012.37;;;580.20;;
31091;SDS011;67728;53.122;12.776;2024-03-23T07:18:27;1009.20;;;571.10;;
31091;SDS011;67728;53.122;12.776;2024-03-23T07:19:57;984.17;;;567.87;;
31091;SDS011;67728;53.122;12.776;2024-03-23T07:21:28;991.63;;;576.80;;
31091;SDS011;67728;53.122;12.776;2024-03-23T07:23:00;1010.23;;;578.23;;
31091;SDS011;67728;53.122;12.776;2024-03-23T07:24:30;1011.63;;;582.73;;
31091;SDS011;67728;53.122;12.776;2024-03-23T07:26:03;1023.30;;;578.93;;
31091;SDS011;67728;53.122;12.776;2024-03-23T07:27:35;1035.97;;;589.30;;
31091;SDS011;67728;53.122;12.776;2024-03-23T07:29:07;1017.73;;;585.93;;
31091;SDS011;67728;53.122;12.776;2024-03-23T07:30:39;1041.03;;;597.67;;
31091;SDS011;67728;53.122;12.776;2024-03-23T07:32:10;1034.77;;;593.00;;
31091;SDS011;67728;53.122;12.776;2024-03-23T07:33:42;1027.07;;;593.77;;
31091;SDS011;67728;53.122;12.776;2024-03-23T07:35:14;1010.73;;;577.93;;
31091;SDS011;67728;53.122;12.776;2024-03-23T07:36:45;1025.57;;;589.10;;
31091;SDS011;67728;53.122;12.776;2024-03-23T07:38:16;1008.97;;;581.87;;
31091;SDS011;67728;53.122;12.776;2024-03-23T07:39:47;1008.90;;;583.20;;
31091;SDS011;67728;53.122;12.776;2024-03-23T07:41:19;1033.43;;;588.70;;
31091;SDS011;67728;53.122;12.776;2024-03-23T07:42:51;1035.47;;;589.33;;
31091;SDS011;67728;53.122;12.776;2024-03-23T07:44:24;1005.20;;;587.97;;
31091;SDS011;67728;53.122;12.776;2024-03-23T07:45:55;1006.20;;;582.27;;
31091;SDS011;67728;53.122;12.776;2024-03-23T07:47:25;990.03;;;589.40;;
31091;SDS011;67728;53.122;12.776;2024-03-23T07:48:57;993.07;;;580.73;;
31091;SDS011;67728;53.122;12.776;2024-03-23T07:50:28;985.63;;;578.00;;
31091;SDS011;67728;53.122;12.776;2024-03-23T07:51:58;1009.43;;;593.27;;
31091;SDS011;67728;53.122;12.776;2024-03-23T07:53:30;998.23;;;593.53;;
31091;SDS011;67728;53.122;12.776;2024-03-23T07:55:01;1011.20;;;598.77;;
31091;SDS011;67728;53.122;12.776;2024-03-23T07:56:33;1000.67;;;589.57;;
31091;SDS011;67728;53.122;12.776;2024-03-23T07:58:04;1017.73;;;589.07;;
31091;SDS011;67728;53.122;12.776;2024-03-23T07:59:36;1000.77;;;578.90;;
31091;SDS011;67728;53.122;12.776;2024-03-23T08:01:08;987.03;;;570.90;;
31091;SDS011;67728;53.122;12.776;2024-03-23T08:02:40;993.27;;;571.00;;
31091;SDS011;67728;53.122;12.776;2024-03-23T08:04:12;984.23;;;574.30;;
31091;SDS011;67728;53.122;12.776;2024-03-23T08:05:42;955.07;;;549.27;;
31091;SDS011;67728;53.122;12.776;2024-03-23T08:07:13;963.50;;;566.63;;
31091;SDS011;67728;53.122;12.776;2024-03-23T08:08:45;961.10;;;554.87;;
31091;SDS011;67728;53.122;12.776;2024-03-23T08:10:17;991.37;;;574.53;;
31091;SDS011;67728;53.122;12.776;2024-03-23T08:11:48;972.30;;;567.67;;
31091;SDS011;67728;53.122;12.776;2024-03-23T08:13:19;981.17;;;577.73;;
31091;SDS011;67728;53.122;12.776;2024-03-23T08:14:51;999.17;;;573.87;;
31091;SDS011;67728;53.122;12.776;2024-03-23T08:16:22;960.13;;;556.53;;
31091;SDS011;67728;53.122;12.776;2024-03-23T08:17:54;984.03;;;557.50;;
31091;SDS011;67728;53.122;12.776;2024-03-23T08:19:25;957.53;;;562.97;;
31091;SDS011;67728;53.122;12.776;2024-03-23T08:20:56;1028.53;;;558.93;;
31091;SDS011;67728;53.122;12.776;2024-03-23T08:22:28;973.17;;;566.37;;
31091;SDS011;67728;53.122;12.776;2024-03-23T08:23:59;983.60;;;562.33;;
31091;SDS011;67728;53.122;12.776;2024-03-23T08:25:30;977.17;;;573.73;;
31091;SDS011;67728;53.122;12.776;2024-03-23T08:27:01;962.53;;;563.67;;
31091;SDS011;67728;53.122;12.776;2024-03-23T08:28:34;985.27;;;583.27;;
31091;SDS011;67728;53.122;12.776;2024-03-23T08:30:07;990.80;;;590.00;;
31091;SDS011;67728;53.122;12.776;2024-03-23T08:31:38;1001.40;;;594.33;;
31091;SDS011;67728;53.122;12.776;2024-03-23T08:33:10;996.50;;;597.87;;
31091;SDS011;67728;53.122;12.776;2024-03-23T08:34:41;1063.57;;;593.50;;
31091;SDS011;67728;53.122;12.776;2024-03-23T08:36:11;995.57;;;591.67;;
31091;SDS011;67728;53.122;12.776;2024-03-23T08:37:44;997.27;;;594.60;;
31091;SDS011;67728;53.122;12.776;2024-03-23T08:39:14;985.37;;;580.80;;
31091;SDS011;67728;53.122;12.776;2024-03-23T08:40:45;984.00;;;586.43;;
31091;SDS011;67728;53.122;12.776;2024-03-23T08:42:17;1012.17;;;601.40;;
31091;SDS011;67728;53.122;12.776;2024-03-23T08:43:47;995.07;;;594.37;;
31091;SDS011;67728;53.122;12.776;2024-03-23T08:45:19;990.33;;;591.07;;
31091;SDS011;67728;53.122;12.776;2024-03-23T08:46:51;992.17;;;597.07;;
31091;SDS011;67728;53.122;12.776;2024-03-23T08:48:22;1013.87;;;597.73;;
31091;SDS011;67728;53.122;12.776;2024-03-23T08:49:52;999.93;;;588.20;;
31091;SDS011;67728;53.122;12.776;2024-03-23T08:51:24;1001.80;;;594.30;;
31091;SDS011;67728;53.122;12.776;2024-03-23T08:52:54;981.20;;;590.60;;
31091;SDS011;67728;53.122;12.776;2024-03-23T08:54:25;1001.57;;;596.07;;
31091;SDS011;67728;53.122;12.776;2024-03-23T08:55:59;989.20;;;603.27;;
31091;SDS011;67728;53.122;12.776;2024-03-23T08:57:31;981.40;;;595.07;;
31091;SDS011;67728;53.122;12.776;2024-03-23T08:59:01;999.77;;;604.47;;
31091;SDS011;67728;53.122;12.776;2024-03-23T09:00:34;983.67;;;582.70;;
31091;SDS011;67728;53.122;12.776;2024-03-23T09:02:05;980.97;;;601.60;;
31091;SDS011;67728;53.122;12.776;2024-03-23T09:03:36;998.20;;;605.60;;
31091;SDS011;67728;53.122;12.776;2024-03-23T09:05:08;992.10;;;604.30;;
31091;SDS011;67728;53.122;12.776;2024-03-23T09:06:38;999.93;;;610.93;;
31091;SDS011;67728;53.122;12.776;2024-03-23T09:08:09;1012.10;;;615.47;;
31091;SDS011;67728;53.122;12.776;2024-03-23T09:09:41;1005.17;;;620.43;;
31091;SDS011;67728;53.122;12.776;2024-03-23T09:11:12;1011.13;;;616.47;;
31091;SDS011;67728;53.122;12.776;2024-03-23T09:12:43;1008.90;;;617.53;;
31091;SDS011;67728;53.122;12.776;2024-03-23T09:14:15;1020.33;;;634.67;;
31091;SDS011;67728;53.122;12.776;2024-03-23T09:15:47;1013.60;;;617.40;;
31091;SDS011;67728;53.122;12.776;2024-03-23T09:17:21;1019.27;;;623.60;;
31091;SDS011;67728;53.122;12.776;2024-03-23T09:18:52;1035.90;;;650.97;;
31091;SDS011;67728;53.122;12.776;2024-03-23T09:20:23;1042.27;;;652.07;;
31091;SDS011;67728;53.122;12.776;2024-03-23T09:21:54;1009.47;;;614.43;;
31091;SDS011;67728;53.122;12.776;2024-03-23T09:23:25;1012.17;;;619.80;;